createdAt,value
2022-08-26T00:00:10.616Z,0.00
2022-08-26T00:01:10.576Z,0.00
2022-08-26T00:02:10.609Z,0.00
2022-08-26T00:03:10.553Z,0.00
2022-08-26T00:04:10.594Z,0.00
2022-08-26T00:05:10.547Z,0.00
2022-08-26T00:06:10.516Z,0.00
2022-08-26T00:07:10.500Z,0.00
2022-08-26T00:08:10.498Z,0.00
2022-08-26T00:09:10.477Z,0.00
2022-08-26T00:10:10.488Z,0.00
2022-08-26T00:11:10.447Z,0.00
2022-08-26T00:12:12.415Z,0.00
2022-08-26T00:13:10.417Z,0.00
2022-08-26T00:14:10.407Z,0.00
2022-08-26T00:15:10.424Z,0.00
2022-08-26T00:16:10.441Z,0.00
2022-08-26T00:17:10.367Z,0.00
2022-08-26T00:18:21.795Z,0.00
2022-08-26T00:19:11.337Z,0.00
2022-08-26T00:20:10.367Z,0.00
2022-08-26T00:21:10.320Z,0.00
2022-08-26T00:22:10.307Z,0.00
2022-08-26T00:23:10.287Z,0.00
2022-08-26T00:24:10.305Z,0.00
2022-08-26T00:25:10.289Z,0.00
2022-08-26T00:26:11.080Z,0.00
2022-08-26T00:27:10.241Z,0.00
2022-08-26T00:28:10.854Z,0.00
2022-08-26T00:29:10.218Z,0.00
2022-08-26T00:30:10.232Z,0.00
2022-08-26T00:31:10.966Z,0.00
2022-08-26T00:32:10.211Z,0.00
2022-08-26T00:33:10.362Z,0.00
2022-08-26T00:34:11.326Z,0.00
2022-08-26T00:35:10.159Z,0.00
2022-08-26T00:36:14.429Z,0.00
2022-08-26T00:37:14.528Z,0.00
2022-08-26T00:38:11.097Z,0.00
2022-08-26T00:39:10.099Z,0.00
2022-08-26T00:40:10.138Z,0.00
2022-08-26T00:41:10.050Z,0.00
2022-08-26T00:42:10.049Z,0.00
2022-08-26T00:43:10.077Z,0.00
2022-08-26T00:44:10.023Z,0.00
2022-08-26T00:45:10.195Z,0.00
2022-08-26T00:46:10.019Z,0.00
2022-08-26T00:47:09.979Z,0.00
2022-08-26T00:48:09.967Z,0.00
2022-08-26T00:49:11.723Z,0.00
2022-08-26T00:50:09.969Z,0.00
2022-08-26T00:51:09.949Z,0.00
2022-08-26T00:52:09.974Z,0.00
2022-08-26T00:53:09.898Z,0.00
2022-08-26T00:54:10.694Z,0.00
2022-08-26T00:55:09.892Z,0.00
2022-08-26T00:56:09.867Z,0.00
2022-08-26T00:57:16.332Z,0.00
2022-08-26T00:58:10.837Z,0.00
2022-08-26T00:59:09.822Z,0.00
2022-08-26T01:00:09.829Z,0.00
2022-08-26T01:01:09.844Z,0.00
2022-08-26T01:02:20.817Z,0.00
2022-08-26T01:03:12.726Z,0.00
2022-08-26T01:04:09.762Z,0.00
2022-08-26T01:05:09.781Z,0.00
2022-08-26T01:06:12.541Z,0.00
2022-08-26T01:07:09.710Z,0.00
2022-08-26T01:08:09.700Z,0.00
2022-08-26T01:09:09.770Z,0.00
2022-08-26T01:10:09.771Z,0.00
2022-08-26T01:11:09.661Z,0.00
2022-08-26T01:12:09.650Z,0.00
2022-08-26T01:13:09.650Z,0.00
2022-08-26T01:14:09.628Z,0.00
2022-08-26T01:15:09.630Z,0.00
2022-08-26T01:16:09.627Z,0.00
2022-08-26T01:17:09.580Z,0.00
2022-08-26T01:18:09.579Z,0.00
2022-08-26T01:19:09.550Z,0.00
2022-08-26T01:20:09.572Z,0.00
2022-08-26T01:21:09.529Z,0.00
2022-08-26T01:22:09.522Z,0.00
2022-08-26T01:23:09.508Z,0.00
2022-08-26T01:24:10.260Z,0.00
2022-08-26T01:25:09.504Z,0.00
2022-08-26T01:26:09.468Z,0.00
2022-08-26T01:27:10.465Z,0.00
2022-08-26T01:28:09.432Z,0.00
2022-08-26T01:29:09.421Z,0.00
2022-08-26T01:30:09.450Z,0.00
2022-08-26T01:31:09.436Z,0.00
2022-08-26T01:32:09.382Z,0.00
2022-08-26T01:33:09.420Z,0.00
2022-08-26T01:34:09.358Z,0.00
2022-08-26T01:35:09.398Z,0.00
2022-08-26T01:36:09.330Z,0.00
2022-08-26T01:37:15.503Z,0.00
2022-08-26T01:38:10.309Z,0.00
2022-08-26T01:39:09.292Z,0.00
2022-08-26T01:40:09.417Z,0.00
2022-08-26T01:41:16.171Z,0.00
2022-08-26T01:42:10.471Z,0.00
2022-08-26T01:43:09.437Z,0.00
2022-08-26T01:44:09.814Z,0.00
2022-08-26T01:45:09.231Z,0.00
2022-08-26T01:46:09.242Z,0.00
2022-08-26T01:47:09.213Z,0.00
2022-08-26T01:48:09.182Z,0.00
2022-08-26T01:49:09.162Z,0.00
2022-08-26T01:50:09.171Z,0.00
2022-08-26T01:51:09.132Z,0.00
2022-08-26T01:52:09.113Z,0.00
2022-08-26T01:53:09.508Z,0.00
2022-08-26T01:54:12.084Z,0.00
2022-08-26T01:55:09.102Z,0.00
2022-08-26T01:56:09.063Z,0.00
2022-08-26T01:57:09.053Z,0.00
2022-08-26T01:58:09.033Z,0.00
2022-08-26T01:59:09.453Z,0.00
2022-08-26T02:00:09.033Z,0.00
2022-08-26T02:01:09.759Z,0.00
2022-08-26T02:02:09.018Z,0.00
2022-08-26T02:03:08.982Z,0.00
2022-08-26T02:04:09.027Z,0.00
2022-08-26T02:05:08.983Z,0.00
2022-08-26T02:06:09.317Z,0.00
2022-08-26T02:07:08.924Z,0.00
2022-08-26T02:08:08.904Z,0.00
2022-08-26T02:09:08.903Z,0.00
2022-08-26T02:10:09.303Z,0.00
2022-08-26T02:11:08.864Z,0.00
2022-08-26T02:12:08.854Z,0.00
2022-08-26T02:13:08.916Z,0.00
2022-08-26T02:14:08.833Z,0.00
2022-08-26T02:15:08.843Z,0.00
2022-08-26T02:16:08.856Z,0.00
2022-08-26T02:17:08.788Z,0.00
2022-08-26T02:18:08.775Z,0.00
2022-08-26T02:19:09.766Z,0.00
2022-08-26T02:20:10.715Z,0.00
2022-08-26T02:21:08.744Z,0.00
2022-08-26T02:22:08.724Z,0.00
2022-08-26T02:23:08.808Z,0.00
2022-08-26T02:24:08.697Z,0.00
2022-08-26T02:25:08.716Z,0.00
2022-08-26T02:26:08.664Z,0.00
2022-08-26T02:27:08.662Z,0.00
2022-08-26T02:28:08.635Z,0.00
2022-08-26T02:29:08.624Z,0.00
2022-08-26T02:30:08.646Z,0.00
2022-08-26T02:31:08.625Z,0.00
2022-08-26T02:32:08.586Z,0.00
2022-08-26T02:33:08.842Z,0.00
2022-08-26T02:34:08.564Z,0.00
2022-08-26T02:35:08.574Z,0.00
2022-08-26T02:36:08.536Z,0.00
2022-08-26T02:37:08.576Z,0.00
2022-08-26T02:38:09.823Z,0.00
2022-08-26T02:39:08.496Z,0.00
2022-08-26T02:40:08.558Z,0.00
2022-08-26T02:41:09.120Z,0.00
2022-08-26T02:42:08.456Z,0.00
2022-08-26T02:43:08.767Z,0.00
2022-08-26T02:44:08.425Z,0.00
2022-08-26T02:45:08.452Z,0.00
2022-08-26T02:46:08.406Z,0.00
2022-08-26T02:47:08.448Z,0.00
2022-08-26T02:48:08.375Z,0.00
2022-08-26T02:49:08.365Z,0.00
2022-08-26T02:50:08.375Z,0.00
2022-08-26T02:51:08.345Z,0.00
2022-08-26T02:52:08.324Z,0.00
2022-08-26T02:53:08.467Z,0.00
2022-08-26T02:54:08.304Z,0.00
2022-08-26T02:55:08.326Z,0.00
2022-08-26T02:56:08.275Z,0.00
2022-08-26T02:57:08.267Z,0.00
2022-08-26T02:58:08.254Z,0.00
2022-08-26T02:59:08.243Z,0.00
2022-08-26T03:00:08.246Z,0.00
2022-08-26T03:01:08.259Z,0.00
2022-08-26T03:02:08.267Z,0.00
2022-08-26T03:03:08.335Z,0.00
2022-08-26T03:04:08.195Z,0.00
2022-08-26T03:05:08.197Z,0.00
2022-08-26T03:06:08.144Z,0.00
2022-08-26T03:07:08.127Z,0.00
2022-08-26T03:08:08.127Z,0.00
2022-08-26T03:09:08.107Z,0.00
2022-08-26T03:10:08.734Z,0.00
2022-08-26T03:11:08.086Z,0.00
2022-08-26T03:12:08.277Z,0.00
2022-08-26T03:13:08.216Z,0.00
2022-08-26T03:14:08.037Z,0.00
2022-08-26T03:15:16.006Z,0.00
2022-08-26T03:16:09.060Z,0.00
2022-08-26T03:17:08.004Z,0.00
2022-08-26T03:18:07.985Z,0.00
2022-08-26T03:19:07.977Z,0.00
2022-08-26T03:20:07.976Z,0.00
2022-08-26T03:21:07.946Z,0.00
2022-08-26T03:22:07.927Z,0.00
2022-08-26T03:23:08.120Z,0.00
2022-08-26T03:24:07.898Z,0.00
2022-08-26T03:25:07.927Z,0.00
2022-08-26T03:26:07.909Z,0.00
2022-08-26T03:27:07.877Z,0.00
2022-08-26T03:28:07.861Z,0.00
2022-08-26T03:29:07.845Z,0.00
2022-08-26T03:30:07.855Z,0.00
2022-08-26T03:31:07.827Z,0.00
2022-08-26T03:32:07.797Z,0.00
2022-08-26T03:33:08.051Z,0.00
2022-08-26T03:34:07.825Z,0.00
2022-08-26T03:35:07.787Z,0.00
2022-08-26T03:36:07.738Z,0.00
2022-08-26T03:37:07.741Z,0.00
2022-08-26T03:38:07.719Z,0.00
2022-08-26T03:39:07.707Z,0.00
2022-08-26T03:40:07.782Z,0.00
2022-08-26T03:41:07.685Z,0.00
2022-08-26T03:42:07.658Z,0.00
2022-08-26T03:43:09.597Z,0.00
2022-08-26T03:44:07.638Z,0.00
2022-08-26T03:45:07.660Z,0.00
2022-08-26T03:46:07.576Z,1.00
2022-08-26T03:47:07.609Z,0.00
2022-08-26T03:48:07.606Z,0.00
2022-08-26T03:49:07.575Z,0.00
2022-08-26T03:50:07.588Z,0.00
2022-08-26T03:51:07.548Z,0.00
2022-08-26T03:52:07.489Z,1.00
2022-08-26T03:53:12.649Z,1.00
2022-08-26T03:54:08.495Z,1.00
2022-08-26T03:55:07.526Z,0.00
2022-08-26T03:56:07.478Z,0.00
2022-08-26T03:57:07.468Z,0.00
2022-08-26T03:58:07.448Z,0.00
2022-08-26T03:59:07.488Z,0.00
2022-08-26T04:00:07.412Z,1.00
2022-08-26T04:01:07.423Z,0.00
2022-08-26T04:02:11.375Z,2.00
2022-08-26T04:03:09.714Z,1.00
2022-08-26T04:04:07.333Z,5.00
2022-08-26T04:05:07.338Z,4.00
2022-08-26T04:06:07.324Z,1.00
2022-08-26T04:07:07.279Z,1.00
2022-08-26T04:08:07.270Z,2.00
2022-08-26T04:09:07.260Z,2.00
2022-08-26T04:10:07.239Z,2.00
2022-08-26T04:11:07.629Z,3.00
2022-08-26T04:12:07.219Z,4.00
2022-08-26T04:13:07.441Z,4.00
2022-08-26T04:14:07.229Z,5.00
2022-08-26T04:15:07.361Z,6.00
2022-08-26T04:16:07.403Z,6.00
2022-08-26T04:17:07.360Z,7.00
2022-08-26T04:18:07.309Z,7.00
2022-08-26T04:19:07.463Z,8.00
2022-08-26T04:20:07.720Z,12.00
2022-08-26T04:21:07.832Z,13.00
2022-08-26T04:22:07.240Z,14.00
2022-08-26T04:23:07.249Z,20.00
2022-08-26T04:24:10.283Z,22.00
2022-08-26T04:25:08.042Z,26.00
2022-08-26T04:26:07.250Z,34.00
2022-08-26T04:27:07.110Z,33.00
2022-08-26T04:28:07.025Z,33.00
2022-08-26T04:29:06.990Z,35.00
2022-08-26T04:30:06.981Z,49.00
2022-08-26T04:31:07.019Z,49.00
2022-08-26T04:32:07.001Z,54.00
2022-08-26T04:33:12.746Z,61.00
2022-08-26T04:34:07.923Z,69.00
2022-08-26T04:35:06.916Z,70.00
2022-08-26T04:36:06.936Z,71.00
2022-08-26T04:37:07.868Z,81.00
2022-08-26T04:38:06.880Z,91.00
2022-08-26T04:39:06.861Z,102.00
2022-08-26T04:40:06.869Z,104.00
2022-08-26T04:41:06.863Z,107.00
2022-08-26T04:42:07.951Z,117.00
2022-08-26T04:43:07.031Z,128.00
2022-08-26T04:44:06.791Z,130.00
2022-08-26T04:45:10.414Z,140.00
2022-08-26T04:46:06.872Z,146.00
2022-08-26T04:47:06.751Z,154.00
2022-08-26T04:48:06.738Z,155.00
2022-08-26T04:49:06.728Z,160.00
2022-08-26T04:50:06.723Z,174.00
2022-08-26T04:51:06.765Z,185.00
2022-08-26T04:52:06.768Z,191.00
2022-08-26T04:53:07.190Z,201.00
2022-08-26T04:54:06.660Z,211.00
2022-08-26T04:55:08.409Z,215.00
2022-08-26T04:56:06.661Z,223.00
2022-08-26T04:57:06.636Z,240.00
2022-08-26T04:58:06.603Z,254.00
2022-08-26T04:59:07.242Z,257.00
2022-08-26T05:00:06.581Z,273.00
2022-08-26T05:01:06.594Z,285.00
2022-08-26T05:02:06.612Z,297.00
2022-08-26T05:03:06.680Z,307.00
2022-08-26T05:04:08.085Z,304.00
2022-08-26T05:05:06.520Z,315.00
2022-08-26T05:06:06.527Z,331.00
2022-08-26T05:07:06.503Z,326.00
2022-08-26T05:08:06.473Z,323.00
2022-08-26T05:09:06.558Z,338.00
2022-08-26T05:10:08.764Z,353.00
2022-08-26T05:11:06.473Z,367.00
2022-08-26T05:12:06.441Z,373.00
2022-08-26T05:13:11.211Z,382.00
2022-08-26T05:14:07.420Z,393.00
2022-08-26T05:15:06.424Z,406.00
2022-08-26T05:16:06.477Z,424.00
2022-08-26T05:17:06.391Z,433.00
2022-08-26T05:18:06.362Z,446.00
2022-08-26T05:19:06.364Z,453.00
2022-08-26T05:20:06.342Z,460.00
2022-08-26T05:21:06.333Z,467.00
2022-08-26T05:22:06.284Z,483.00
2022-08-26T05:23:06.296Z,498.00
2022-08-26T05:24:06.283Z,519.00
2022-08-26T05:25:06.251Z,536.00
2022-08-26T05:26:06.276Z,550.00
2022-08-26T05:27:07.498Z,561.00
2022-08-26T05:28:07.204Z,566.00
2022-08-26T05:29:06.206Z,581.00
2022-08-26T05:30:06.174Z,591.00
2022-08-26T05:31:06.243Z,610.00
2022-08-26T05:32:06.234Z,627.00
2022-08-26T05:33:06.271Z,651.00
2022-08-26T05:34:15.764Z,683.00
2022-08-26T05:35:08.961Z,700.00
2022-08-26T05:36:06.965Z,722.00
2022-08-26T05:37:06.276Z,754.00
2022-08-26T05:38:10.385Z,780.00
2022-08-26T05:39:07.074Z,788.00
2022-08-26T05:40:06.071Z,795.00
2022-08-26T05:41:08.844Z,803.00
2022-08-26T05:42:06.082Z,826.00
2022-08-26T05:43:06.143Z,845.00
2022-08-26T05:44:06.219Z,876.00
2022-08-26T05:45:06.187Z,908.00
2022-08-26T05:46:07.683Z,922.00
2022-08-26T05:47:05.996Z,950.00
2022-08-26T05:48:06.199Z,962.00
2022-08-26T05:49:05.945Z,968.00
2022-08-26T05:50:12.144Z,985.00
2022-08-26T05:51:06.036Z,1001.00
2022-08-26T05:52:05.916Z,1010.00
2022-08-26T05:53:05.888Z,1019.00
2022-08-26T05:54:05.876Z,1029.00
2022-08-26T05:55:10.055Z,1044.00
2022-08-26T05:56:05.888Z,1038.00
2022-08-26T05:57:05.843Z,1040.00
2022-08-26T05:58:05.835Z,1035.00
2022-08-26T05:59:05.814Z,1028.00
2022-08-26T06:00:06.783Z,1037.00
2022-08-26T06:01:05.837Z,1038.00
2022-08-26T06:02:05.827Z,1009.00
2022-08-26T06:03:05.818Z,1037.00
2022-08-26T06:04:05.739Z,1046.00
2022-08-26T06:05:05.717Z,1070.00
2022-08-26T06:06:05.737Z,1096.00
2022-08-26T06:07:05.704Z,1089.00
2022-08-26T06:08:05.687Z,1095.00
2022-08-26T06:09:05.667Z,1113.00
2022-08-26T06:10:30.985Z,1152.00
2022-08-26T06:11:06.669Z,1159.00
2022-08-26T06:12:05.627Z,1194.00
2022-08-26T06:13:11.526Z,1194.00
2022-08-26T06:14:07.127Z,1172.00
2022-08-26T06:15:05.615Z,1181.00
2022-08-26T06:16:05.672Z,1227.00
2022-08-26T06:17:05.698Z,1265.00
2022-08-26T06:18:05.744Z,1284.00
2022-08-26T06:19:10.410Z,1340.00
2022-08-26T06:20:06.712Z,1452.00
2022-08-26T06:21:05.688Z,1265.00
2022-08-26T06:22:05.519Z,1219.00
2022-08-26T06:23:05.567Z,1248.00
2022-08-26T06:24:05.488Z,1242.00
2022-08-26T06:25:05.459Z,1344.00
2022-08-26T06:26:05.492Z,1355.00
2022-08-26T06:27:05.437Z,1391.00
2022-08-26T06:28:05.529Z,1442.00
2022-08-26T06:29:05.613Z,1464.00
2022-08-26T06:30:11.079Z,1443.00
2022-08-26T06:31:06.202Z,1394.00
2022-08-26T06:32:05.454Z,1340.00
2022-08-26T06:33:05.423Z,1316.00
2022-08-26T06:34:10.399Z,1296.00
2022-08-26T06:35:06.347Z,1296.00
2022-08-26T06:36:07.230Z,1319.00
2022-08-26T06:37:05.302Z,1391.00
2022-08-26T06:38:05.291Z,1378.00
2022-08-26T06:39:05.280Z,1341.00
2022-08-26T06:40:05.309Z,1359.00
2022-08-26T06:41:05.287Z,1364.00
2022-08-26T06:42:06.287Z,1244.00
2022-08-26T06:43:05.266Z,1279.00
2022-08-26T06:44:05.292Z,1287.00
2022-08-26T06:45:05.200Z,1222.00
2022-08-26T06:46:05.275Z,1217.00
2022-08-26T06:47:05.171Z,1281.00
2022-08-26T06:48:05.162Z,1245.00
2022-08-26T06:49:05.151Z,1290.00
2022-08-26T06:50:05.142Z,1231.00
2022-08-26T06:51:05.161Z,1180.00
2022-08-26T06:52:05.119Z,1269.00
2022-08-26T06:53:05.155Z,1285.00
2022-08-26T06:54:05.103Z,1406.00
2022-08-26T06:55:05.072Z,1315.00
2022-08-26T06:56:05.092Z,1236.00
2022-08-26T06:57:05.080Z,1218.00
2022-08-26T06:58:05.063Z,1156.00
2022-08-26T06:59:05.053Z,1393.00
2022-08-26T07:00:05.013Z,1488.00
2022-08-26T07:01:09.533Z,1106.00
2022-08-26T07:02:06.117Z,1061.00
2022-08-26T07:03:05.053Z,871.00
2022-08-26T07:04:05.177Z,766.00
2022-08-26T07:05:05.974Z,1063.00
2022-08-26T07:06:04.946Z,1188.00
2022-08-26T07:07:04.991Z,1372.00
2022-08-26T07:08:04.924Z,1257.00
2022-08-26T07:09:05.034Z,1225.00
2022-08-26T07:10:04.885Z,1231.00
2022-08-26T07:11:04.866Z,1330.00
2022-08-26T07:12:04.887Z,1385.00
2022-08-26T07:13:06.005Z,1070.00
2022-08-26T07:14:04.855Z,1132.00
2022-08-26T07:15:04.835Z,1375.00
2022-08-26T07:16:04.863Z,1273.00
2022-08-26T07:17:04.817Z,1327.00
2022-08-26T07:18:04.896Z,1451.00
2022-08-26T07:19:10.777Z,1185.00
2022-08-26T07:20:05.756Z,1091.00
2022-08-26T07:21:04.749Z,1165.00
2022-08-26T07:22:04.760Z,1015.00
2022-08-26T07:23:04.889Z,1122.00
2022-08-26T07:24:05.706Z,866.00
2022-08-26T07:25:04.688Z,1099.00
2022-08-26T07:26:04.787Z,1152.00
2022-08-26T07:27:05.414Z,1398.00
2022-08-26T07:28:04.663Z,1038.00
2022-08-26T07:29:04.648Z,955.00
2022-08-26T07:30:04.630Z,1122.00
2022-08-26T07:31:04.646Z,1268.00
2022-08-26T07:32:04.660Z,1046.00
2022-08-26T07:33:04.690Z,1128.00
2022-08-26T07:34:04.587Z,1241.00
2022-08-26T07:35:04.579Z,1058.00
2022-08-26T07:36:04.549Z,1180.00
2022-08-26T07:37:04.559Z,1259.00
2022-08-26T07:38:04.528Z,1230.00
2022-08-26T07:39:04.509Z,1008.00
2022-08-26T07:40:04.548Z,880.00
2022-08-26T07:41:04.479Z,1171.00
2022-08-26T07:42:07.530Z,1242.00
2022-08-26T07:43:04.505Z,1354.00
2022-08-26T07:44:04.450Z,1519.00
2022-08-26T07:45:04.465Z,1055.00
2022-08-26T07:46:04.416Z,1509.00
2022-08-26T07:47:10.252Z,887.00
2022-08-26T07:48:05.390Z,1253.00
2022-08-26T07:49:04.471Z,1345.00
2022-08-26T07:50:04.371Z,1158.00
2022-08-26T07:51:04.351Z,1261.00
2022-08-26T07:52:04.361Z,1251.00
2022-08-26T07:53:04.467Z,1170.00
2022-08-26T07:54:04.312Z,1273.00
2022-08-26T07:55:04.304Z,1574.00
2022-08-26T07:56:04.290Z,1327.00
2022-08-26T07:57:05.121Z,1301.00
2022-08-26T07:58:05.273Z,1449.00
2022-08-26T07:59:04.252Z,1184.00
2022-08-26T08:00:05.360Z,1880.00
2022-08-26T08:01:04.260Z,1716.00
2022-08-26T08:02:04.247Z,1491.00
2022-08-26T08:03:04.204Z,1383.00
2022-08-26T08:04:04.197Z,1907.00
2022-08-26T08:05:04.225Z,1369.00
2022-08-26T08:06:04.244Z,1927.00
2022-08-26T08:07:04.165Z,1574.00
2022-08-26T08:08:26.352Z,2266.00
2022-08-26T08:09:05.117Z,1985.00
2022-08-26T08:10:09.202Z,1503.00
2022-08-26T08:11:05.098Z,1533.00
2022-08-26T08:12:04.146Z,1486.00
2022-08-26T08:13:04.066Z,1661.00
2022-08-26T08:14:04.215Z,1828.00
2022-08-26T08:15:04.103Z,1933.00
2022-08-26T08:16:04.207Z,2046.00
2022-08-26T08:17:04.190Z,2102.00
2022-08-26T08:18:04.368Z,2194.00
2022-08-26T08:19:03.986Z,2223.00
2022-08-26T08:20:03.977Z,2319.00
2022-08-26T08:21:21.073Z,2867.00
2022-08-26T08:22:17.887Z,2456.00
2022-08-26T08:23:05.035Z,2297.00
2022-08-26T08:24:04.103Z,2240.00
2022-08-26T08:25:06.224Z,2781.00
2022-08-26T08:26:03.899Z,3039.00
2022-08-26T08:27:03.920Z,1950.00
2022-08-26T08:28:03.871Z,1631.00
2022-08-26T08:29:03.859Z,1794.00
2022-08-26T08:30:03.852Z,2386.00
2022-08-26T08:31:03.877Z,2648.00
2022-08-26T08:32:06.806Z,1951.00
2022-08-26T08:33:04.803Z,2597.00
2022-08-26T08:34:03.790Z,1725.00
2022-08-26T08:35:10.872Z,2600.00
2022-08-26T08:36:04.760Z,1663.00
2022-08-26T08:37:06.148Z,2630.00
2022-08-26T08:38:04.651Z,2527.00
2022-08-26T08:39:03.772Z,1570.00
2022-08-26T08:40:03.856Z,2273.00
2022-08-26T08:41:03.703Z,2271.00
2022-08-26T08:42:03.723Z,2330.00
2022-08-26T08:43:03.806Z,2432.00
2022-08-26T08:44:03.661Z,2681.00
2022-08-26T08:45:03.643Z,2958.00
2022-08-26T08:46:03.898Z,2109.00
2022-08-26T08:47:03.643Z,2139.00
2022-08-26T08:48:03.614Z,2109.00
2022-08-26T08:49:03.591Z,3511.00
2022-08-26T08:50:03.594Z,2369.00
2022-08-26T08:51:04.355Z,1150.00
2022-08-26T08:52:04.248Z,1429.00
2022-08-26T08:53:03.544Z,2195.00
2022-08-26T08:54:04.525Z,1639.00
2022-08-26T08:55:03.626Z,1865.00
2022-08-26T08:56:03.506Z,2955.00
2022-08-26T08:57:03.527Z,1524.00
2022-08-26T08:58:03.485Z,2342.00
2022-08-26T08:59:03.469Z,2027.00
2022-08-26T09:00:03.465Z,2378.00
2022-08-26T09:01:03.454Z,1519.00
2022-08-26T09:02:03.512Z,2038.00
2022-08-26T09:03:03.415Z,2074.00
2022-08-26T09:04:03.408Z,2096.00
2022-08-26T09:05:03.388Z,2574.00
2022-08-26T09:06:03.378Z,1818.00
2022-08-26T09:07:03.399Z,2650.00
2022-08-26T09:08:03.402Z,3084.00
2022-08-26T09:09:03.349Z,2830.00
2022-08-26T09:10:03.349Z,1755.00
2022-08-26T09:11:03.421Z,1888.00
2022-08-26T09:12:03.329Z,1138.00
2022-08-26T09:13:03.290Z,1417.00
2022-08-26T09:14:03.483Z,2027.00
2022-08-26T09:15:03.400Z,1531.00
2022-08-26T09:16:04.003Z,1621.00
2022-08-26T09:17:03.399Z,2115.00
2022-08-26T09:18:04.525Z,1978.00
2022-08-26T09:19:03.262Z,1701.00
2022-08-26T09:20:03.358Z,2028.00
2022-08-26T09:21:03.182Z,1838.00
2022-08-26T09:22:08.812Z,2949.00
2022-08-26T09:23:04.163Z,2622.00
2022-08-26T09:24:03.153Z,1306.00
2022-08-26T09:25:03.144Z,1854.00
2022-08-26T09:26:03.135Z,1423.00
2022-08-26T09:27:03.144Z,2142.00
2022-08-26T09:28:03.688Z,1855.00
2022-08-26T09:29:03.094Z,1606.00
2022-08-26T09:30:03.076Z,1674.00
2022-08-26T09:31:04.092Z,1896.00
2022-08-26T09:32:03.093Z,2379.00
2022-08-26T09:33:03.136Z,2656.00
2022-08-26T09:34:04.314Z,2925.00
2022-08-26T09:35:03.016Z,2853.00
2022-08-26T09:36:03.147Z,2157.00
2022-08-26T09:37:04.760Z,3248.00
2022-08-26T09:38:02.978Z,2146.00
2022-08-26T09:39:02.957Z,2205.00
2022-08-26T09:40:03.258Z,1628.00
2022-08-26T09:41:03.007Z,1462.00
2022-08-26T09:42:02.959Z,2087.00
2022-08-26T09:43:02.908Z,2959.00
2022-08-26T09:44:02.900Z,2752.00
2022-08-26T09:45:02.880Z,1342.00
2022-08-26T09:46:03.663Z,3100.00
2022-08-26T09:47:03.678Z,2074.00
2022-08-26T09:48:03.200Z,1846.00
2022-08-26T09:49:02.830Z,1300.00
2022-08-26T09:50:03.126Z,1471.00
2022-08-26T09:51:03.866Z,2583.00
2022-08-26T09:52:02.921Z,1428.00
2022-08-26T09:53:02.947Z,1555.00
2022-08-26T09:54:03.781Z,1661.00
2022-08-26T09:55:03.419Z,1854.00
2022-08-26T09:56:02.751Z,1784.00
2022-08-26T09:57:02.792Z,2283.00
2022-08-26T09:58:04.174Z,1881.00
2022-08-26T09:59:03.836Z,2041.00
2022-08-26T10:00:02.695Z,1640.00
2022-08-26T10:01:02.738Z,3489.00
2022-08-26T10:02:02.855Z,3196.00
2022-08-26T10:03:03.706Z,2553.00
2022-08-26T10:04:03.348Z,1114.00
2022-08-26T10:05:09.514Z,1511.00
2022-08-26T10:06:03.623Z,3936.00
2022-08-26T10:07:02.913Z,1289.00
2022-08-26T10:08:02.731Z,1655.00
2022-08-26T10:09:08.323Z,1535.00
2022-08-26T10:10:03.579Z,1687.00
2022-08-26T10:11:02.694Z,1756.00
2022-08-26T10:12:03.053Z,1859.00
2022-08-26T10:13:02.690Z,2074.00
2022-08-26T10:14:02.526Z,1720.00
2022-08-26T10:15:02.558Z,1831.00
2022-08-26T10:16:02.608Z,1776.00
2022-08-26T10:17:02.603Z,1785.00
2022-08-26T10:18:02.475Z,1796.00
2022-08-26T10:19:02.723Z,1801.00
2022-08-26T10:20:02.558Z,1798.00
2022-08-26T10:21:02.440Z,1798.00
2022-08-26T10:22:02.659Z,1800.00
2022-08-26T10:23:02.477Z,1797.00
2022-08-26T10:24:02.391Z,1793.00
2022-08-26T10:25:02.718Z,1788.00
2022-08-26T10:26:02.376Z,1788.00
2022-08-26T10:27:02.380Z,1790.00
2022-08-26T10:28:02.345Z,1787.00
2022-08-26T10:29:02.344Z,1781.00
2022-08-26T10:30:02.320Z,1773.00
2022-08-26T10:31:02.322Z,1768.00
2022-08-26T10:32:02.740Z,1762.00
2022-08-26T10:33:02.330Z,1760.00
2022-08-26T10:34:02.444Z,1749.00
2022-08-26T10:35:02.502Z,1732.00
2022-08-26T10:36:02.243Z,1748.00
2022-08-26T10:37:14.430Z,1751.00
2022-08-26T10:38:03.353Z,1743.00
2022-08-26T10:39:02.215Z,3075.00
2022-08-26T10:40:02.443Z,1509.00
2022-08-26T10:41:02.197Z,1692.00
2022-08-26T10:42:02.205Z,1724.00
2022-08-26T10:43:03.480Z,1753.00
2022-08-26T10:44:03.137Z,1761.00
2022-08-26T10:45:02.132Z,1773.00
2022-08-26T10:46:02.267Z,1785.00
2022-08-26T10:47:02.139Z,1789.00
2022-08-26T10:48:02.135Z,1793.00
2022-08-26T10:49:03.269Z,1790.00
2022-08-26T10:50:03.171Z,1793.00
2022-08-26T10:51:02.247Z,1791.00
2022-08-26T10:52:02.338Z,1778.00
2022-08-26T10:53:03.108Z,1775.00
2022-08-26T10:54:02.109Z,1796.00
2022-08-26T10:55:02.010Z,1796.00
2022-08-26T10:56:02.079Z,1797.00
2022-08-26T10:57:02.010Z,1784.00
2022-08-26T10:58:08.099Z,1770.00
2022-08-26T10:59:02.949Z,1793.00
2022-08-26T11:00:02.089Z,1791.00
2022-08-26T11:01:01.984Z,1790.00
2022-08-26T11:02:03.742Z,1776.00
2022-08-26T11:03:02.027Z,1819.00
2022-08-26T11:04:01.941Z,1708.00
2022-08-26T11:05:01.882Z,1732.00
2022-08-26T11:06:01.870Z,1802.00
2022-08-26T11:07:01.900Z,1785.00
2022-08-26T11:08:01.886Z,1747.00
2022-08-26T11:09:01.843Z,1711.00
2022-08-26T11:10:01.812Z,1738.00
2022-08-26T11:11:01.811Z,1812.00
2022-08-26T11:12:06.780Z,1803.00
2022-08-26T11:13:02.774Z,2435.00
2022-08-26T11:14:01.766Z,1653.00
2022-08-26T11:15:01.776Z,1690.00
2022-08-26T11:16:01.744Z,2286.00
2022-08-26T11:17:01.842Z,1845.00
2022-08-26T11:18:01.856Z,1609.00
2022-08-26T11:19:01.749Z,1810.00
2022-08-26T11:20:07.415Z,1870.00
2022-08-26T11:21:02.815Z,1888.00
2022-08-26T11:22:01.897Z,1899.00
2022-08-26T11:23:01.757Z,1905.00
2022-08-26T11:24:01.715Z,1910.00
2022-08-26T11:25:01.631Z,1901.00
2022-08-26T11:26:02.338Z,1903.00
2022-08-26T11:27:01.636Z,1900.00
2022-08-26T11:28:01.659Z,1894.00
2022-08-26T11:29:03.173Z,1902.00
2022-08-26T11:30:01.569Z,1913.00
2022-08-26T11:31:01.580Z,1918.00
2022-08-26T11:32:01.618Z,1915.00
2022-08-26T11:33:01.534Z,1919.00
2022-08-26T11:34:01.511Z,1917.00
2022-08-26T11:35:01.510Z,1906.00
2022-08-26T11:36:01.620Z,1899.00
2022-08-26T11:37:02.511Z,1890.00
2022-08-26T11:38:01.463Z,1878.00
2022-08-26T11:39:02.706Z,1871.00
2022-08-26T11:40:01.658Z,1868.00
2022-08-26T11:41:01.636Z,1864.00
2022-08-26T11:42:01.513Z,1856.00
2022-08-26T11:43:01.411Z,1919.00
2022-08-26T11:44:01.663Z,2623.00
2022-08-26T11:45:05.318Z,1671.00
2022-08-26T11:46:01.432Z,1820.00
2022-08-26T11:47:01.463Z,1842.00
2022-08-26T11:48:01.375Z,1836.00
2022-08-26T11:49:01.561Z,1831.00
2022-08-26T11:50:01.315Z,1831.00
2022-08-26T11:51:01.362Z,1824.00
2022-08-26T11:52:01.296Z,1821.00
2022-08-26T11:53:01.342Z,1817.00
2022-08-26T11:54:01.274Z,1815.00
2022-08-26T11:55:01.266Z,1933.00
2022-08-26T11:56:01.246Z,2106.00
2022-08-26T11:57:03.763Z,1915.00
2022-08-26T11:58:02.330Z,1707.00
2022-08-26T11:59:01.208Z,1611.00
2022-08-26T12:00:01.187Z,1401.00
2022-08-26T12:01:01.179Z,1656.00
2022-08-26T12:02:01.178Z,1556.00
2022-08-26T12:03:01.201Z,1443.00
2022-08-26T12:04:01.371Z,1543.00
2022-08-26T12:05:01.229Z,1643.00
2022-08-26T12:06:01.180Z,1661.00
2022-08-26T12:07:01.110Z,1647.00
2022-08-26T12:08:01.206Z,1632.00
2022-08-26T12:09:01.089Z,1655.00
2022-08-26T12:10:02.094Z,1672.00
2022-08-26T12:11:01.062Z,1684.00
2022-08-26T12:12:01.043Z,1699.00
2022-08-26T12:13:01.062Z,1702.00
2022-08-26T12:14:01.020Z,1686.00
2022-08-26T12:15:01.033Z,1680.00
2022-08-26T12:16:01.192Z,1689.00
2022-08-26T12:17:00.983Z,1702.00
2022-08-26T12:18:00.993Z,1702.00
2022-08-26T12:19:00.964Z,1704.00
2022-08-26T12:20:00.945Z,1700.00
2022-08-26T12:21:00.937Z,1684.00
2022-08-26T12:22:00.924Z,1676.00
2022-08-26T12:23:00.964Z,1680.00
2022-08-26T12:24:00.895Z,1681.00
2022-08-26T12:25:01.615Z,1683.00
2022-08-26T12:26:00.882Z,1679.00
2022-08-26T12:27:00.956Z,1660.00
2022-08-26T12:28:01.358Z,1670.00
2022-08-26T12:29:00.836Z,1678.00
2022-08-26T12:30:00.828Z,1669.00
2022-08-26T12:31:00.961Z,1650.00
2022-08-26T12:32:00.845Z,1657.00